createdAt,value
2019-04-16T00:24:38.565Z,9.30
2019-04-16T00:27:28.289Z,10.07
2019-04-16T00:30:04.136Z,7.10
2019-04-16T00:32:56.716Z,8.93
2019-04-16T00:35:46.378Z,8.53
2019-04-16T00:38:41.074Z,11.13
2019-04-16T00:41:10.997Z,7.10
2019-04-16T00:43:47.230Z,6.80
2019-04-16T00:46:40.068Z,11.13
2019-04-16T00:49:14.420Z,8.53
2019-04-16T00:52:09.700Z,7.67
2019-04-16T00:54:43.892Z,8.17
2019-04-16T00:57:29.933Z,7.37
2019-04-16T01:00:03.739Z,8.40
2019-04-16T01:02:38.793Z,7.37
2019-04-16T01:05:12.640Z,7.40
2019-04-16T01:07:46.835Z,7.70
2019-04-16T01:10:32.343Z,9.60
2019-04-16T01:13:17.859Z,9.63
2019-04-16T01:16:08.625Z,9.63
2019-04-16T01:18:46.920Z,9.77
2019-04-16T01:21:37.252Z,7.47
2019-04-16T01:24:11.297Z,8.53
2019-04-16T01:27:00.295Z,8.37
2019-04-16T01:29:34.802Z,7.73
2019-04-16T01:43:06.103Z,9.10
2019-04-16T01:46:00.752Z,7.80
2019-04-16T01:48:49.374Z,9.13
2019-04-16T01:51:27.358Z,10.83
2019-04-16T01:54:28.431Z,7.40
2019-04-16T01:57:05.681Z,9.43
2019-04-16T01:59:42.679Z,8.10
2019-04-16T02:02:21.980Z,11.30
2019-04-16T02:05:08.329Z,10.40
2019-04-16T02:07:53.149Z,9.00
2019-04-16T02:10:31.472Z,10.93
2019-04-16T02:13:08.939Z,9.70
2019-04-16T02:16:01.447Z,9.77
2019-04-16T02:18:35.431Z,10.77
2019-04-16T02:21:10.854Z,10.00
2019-04-16T02:23:57.204Z,7.80
2019-04-16T02:26:31.318Z,12.23
2019-04-16T02:29:18.806Z,8.27
2019-04-16T02:31:55.040Z,9.10
2019-04-16T02:34:47.032Z,8.07
2019-04-16T02:37:21.319Z,8.03
2019-04-16T02:39:54.713Z,9.63
2019-04-16T02:42:32.002Z,9.67
2019-04-16T02:45:04.407Z,7.83
2019-04-16T02:47:49.246Z,11.93
2019-04-16T02:50:54.908Z,9.90
2019-04-16T02:54:12.982Z,8.10
2019-04-16T02:57:08.505Z,11.40
2019-04-16T02:59:48.692Z,12.83
2019-04-16T03:02:44.264Z,10.70
2019-04-16T03:05:39.212Z,11.57
2019-04-16T03:08:13.422Z,10.00
2019-04-16T03:21:47.423Z,11.20
2019-04-16T03:24:40.269Z,8.70
2019-04-16T03:27:14.733Z,11.20
2019-04-16T03:29:48.823Z,9.53
2019-04-16T03:32:23.804Z,10.50
2019-04-16T03:34:58.012Z,9.47
2019-04-16T03:37:49.990Z,10.90
2019-04-16T03:40:25.993Z,9.37
2019-04-16T03:43:18.133Z,12.27
2019-04-16T03:46:13.303Z,10.10
2019-04-16T03:48:57.149Z,10.57
2019-04-16T03:51:43.254Z,9.30
2019-04-16T03:54:18.869Z,11.97
2019-04-16T03:57:13.537Z,10.57
2019-04-16T03:59:50.857Z,10.70
2019-04-16T04:02:35.805Z,11.80
2019-04-16T04:05:09.757Z,11.43
2019-04-16T04:08:01.927Z,11.03
2019-04-16T04:10:53.340Z,13.87
2019-04-16T04:13:30.861Z,10.47
2019-04-16T04:16:08.808Z,13.20
2019-04-16T04:18:54.369Z,12.97
2019-04-16T04:21:31.390Z,11.57
2019-04-16T04:24:23.804Z,12.07
2019-04-16T04:26:57.661Z,9.63
2019-04-16T04:29:31.891Z,11.87
2019-04-16T04:32:17.340Z,10.93
2019-04-16T04:35:08.451Z,10.03
2019-04-16T04:37:53.509Z,10.77
2019-04-16T04:40:27.804Z,12.23
2019-04-16T04:43:06.240Z,10.40
2019-04-16T04:46:04.393Z,10.30
2019-04-16T04:48:39.131Z,12.60
2019-04-16T04:51:29.953Z,10.50
2019-04-16T04:54:25.471Z,9.60
2019-04-16T04:57:00.237Z,11.67
2019-04-16T04:59:36.878Z,11.77
2019-04-16T05:02:21.805Z,10.50
2019-04-16T05:05:36.695Z,9.63
2019-04-16T05:08:11.277Z,10.77
2019-04-16T05:10:58.446Z,9.53
2019-04-16T05:13:25.112Z,9.17
2019-04-16T05:16:16.043Z,12.07
2019-04-16T05:18:49.993Z,9.60
2019-04-16T05:21:41.274Z,10.47
2019-04-16T05:24:37.621Z,16.10
2019-04-16T05:27:12.927Z,11.43
2019-04-16T05:29:49.025Z,9.30
2019-04-16T05:32:40.258Z,14.67
2019-04-16T05:35:42.389Z,13.37
2019-04-16T05:38:16.743Z,9.47
2019-04-16T05:41:12.665Z,11.60
2019-04-16T05:43:37.497Z,12.63
2019-04-16T05:46:28.172Z,8.90
2019-04-16T05:49:13.082Z,11.30
2019-04-16T05:52:05.432Z,10.80
2019-04-16T05:55:04.071Z,11.37
2019-04-16T05:58:02.911Z,9.37
2019-04-16T06:01:16.142Z,10.00
2019-04-16T06:03:53.337Z,10.33
2019-04-16T06:06:39.827Z,10.43
2019-04-16T06:09:13.594Z,10.67
2019-04-16T06:11:48.102Z,10.53
2019-04-16T06:14:56.115Z,10.77
2019-04-16T06:17:51.578Z,9.87
2019-04-16T06:20:45.310Z,9.43
2019-04-16T06:23:56.714Z,9.27
2019-04-16T06:26:40.839Z,9.43
2019-04-16T06:29:29.063Z,11.53
2019-04-16T06:32:28.068Z,11.30
2019-04-16T06:35:07.796Z,9.97
2019-04-16T06:38:21.938Z,9.43
2019-04-16T06:41:11.638Z,10.50
2019-04-16T06:43:51.040Z,10.10
2019-04-16T06:46:44.289Z,11.03
2019-04-16T06:49:50.801Z,9.57
2019-04-16T06:52:40.196Z,13.20
2019-04-16T06:56:14.257Z,11.07
2019-04-16T06:59:26.396Z,10.13
2019-04-16T07:02:25.030Z,8.47
2019-04-16T07:05:11.352Z,10.87
2019-04-16T07:08:19.912Z,10.63
2019-04-16T07:10:58.904Z,8.73
2019-04-16T07:13:54.233Z,10.37
2019-04-16T07:16:40.563Z,8.13
2019-04-16T07:19:17.723Z,9.33
2019-04-16T07:21:52.144Z,10.00
2019-04-16T07:24:30.091Z,14.57
2019-04-16T07:27:02.250Z,10.97
2019-04-16T07:29:57.739Z,8.87
2019-04-16T07:32:50.497Z,10.80
2019-04-16T07:35:51.515Z,9.63
2019-04-16T07:38:45.739Z,8.97
2019-04-16T07:41:43.179Z,9.47
2019-04-16T07:44:36.474Z,10.53
2019-04-16T07:47:41.311Z,10.67
2019-04-16T07:50:55.163Z,10.87
2019-04-16T07:56:48.035Z,9.10
2019-04-16T07:59:22.353Z,10.27
2019-04-16T08:01:56.568Z,10.80
2019-04-16T08:43:59.754Z,11.70
2019-04-16T08:57:05.054Z,14.37
2019-04-16T08:59:39.455Z,9.40
2019-04-16T09:02:26.375Z,12.43
2019-04-16T09:04:58.820Z,10.53
2019-04-16T09:07:44.858Z,11.23
2019-04-16T09:10:34.783Z,10.57
2019-04-16T09:13:09.880Z,12.33
2019-04-16T09:15:43.907Z,11.20
2019-04-16T09:18:31.489Z,12.57
2019-04-16T09:21:06.917Z,9.90
2019-04-16T09:23:40.761Z,11.03
2019-04-16T09:26:31.750Z,10.23
2019-04-16T09:29:31.970Z,10.77
2019-04-16T09:32:13.582Z,12.03
2019-04-16T09:35:10.143Z,9.83
2019-04-16T09:37:49.229Z,8.97
2019-04-16T09:40:56.925Z,12.47
2019-04-16T09:43:31.133Z,9.53
2019-04-16T09:46:31.455Z,10.90
2019-04-16T09:48:55.784Z,13.43
2019-04-16T09:51:29.113Z,9.20
2019-04-16T09:54:13.393Z,10.93
2019-04-16T09:56:47.157Z,9.93
2019-04-16T09:59:37.057Z,11.10
2019-04-16T10:02:14.050Z,11.43
2019-04-16T10:04:48.679Z,10.73
2019-04-16T10:07:21.947Z,10.50
2019-04-16T10:10:09.993Z,9.13
2019-04-16T10:12:43.754Z,9.77
2019-04-16T10:15:17.130Z,12.47
2019-04-16T10:17:50.371Z,10.70
2019-04-16T10:20:24.456Z,11.33
2019-04-16T10:22:58.903Z,8.97
2019-04-16T10:25:55.147Z,10.60
2019-04-16T10:28:39.175Z,11.23
2019-04-16T10:31:15.046Z,11.23
2019-04-16T10:33:58.167Z,9.33
2019-04-16T10:36:31.688Z,7.97
2019-04-16T10:39:27.692Z,10.87
2019-04-16T10:42:20.401Z,8.37
2019-04-16T10:45:11.251Z,9.20
2019-04-16T10:48:13.349Z,9.53
2019-04-16T10:51:09.005Z,13.07
2019-04-16T10:54:18.623Z,9.00
2019-04-16T10:57:27.598Z,9.57
2019-04-16T11:00:13.793Z,10.30
2019-04-16T11:03:20.844Z,8.33
2019-04-16T11:06:00.036Z,9.17
2019-04-16T11:08:33.634Z,7.60
2019-04-16T11:11:06.962Z,11.17
2019-04-16T11:13:42.772Z,7.40
2019-04-16T11:16:25.142Z,10.47
2019-04-16T11:18:58.944Z,9.63
2019-04-16T11:21:32.183Z,6.87
2019-04-16T11:24:05.865Z,7.27
2019-04-16T11:26:39.393Z,8.47
2019-04-16T11:29:12.721Z,9.27
2019-04-16T11:31:46.441Z,6.80
2019-04-16T11:34:19.844Z,9.23
2019-04-16T11:37:07.257Z,7.53
2019-04-16T11:39:39.719Z,7.63
2019-04-16T11:42:13.168Z,7.67
2019-04-16T11:44:46.396Z,8.17
2019-04-16T11:47:33.801Z,7.10
2019-04-16T11:50:12.787Z,10.43
2019-04-16T11:52:46.371Z,9.57
2019-04-16T11:55:19.998Z,6.63
2019-04-16T11:57:53.541Z,6.97
2019-04-16T12:00:37.410Z,8.70
2019-04-16T12:03:43.613Z,7.70
2019-04-16T12:06:45.009Z,7.43
2019-04-16T12:10:11.379Z,10.60
2019-04-16T12:13:25.870Z,9.27
2019-04-16T12:16:14.044Z,8.10
2019-04-16T12:19:21.281Z,9.13
2019-04-16T12:22:12.648Z,9.60
2019-04-16T12:24:52.610Z,10.50
2019-04-16T12:27:43.898Z,10.33
2019-04-16T12:30:53.894Z,11.30
2019-04-16T12:33:48.692Z,9.50
2019-04-16T12:36:40.830Z,9.60
2019-04-16T12:40:00.025Z,9.73
2019-04-16T12:42:42.208Z,12.37
2019-04-16T12:45:27.512Z,11.20
2019-04-16T12:48:45.849Z,12.20
2019-04-16T12:51:51.969Z,8.57
2019-04-16T12:54:44.037Z,11.60
2019-04-16T12:57:47.129Z,10.03
2019-04-16T13:00:43.392Z,10.70
2019-04-16T13:03:46.552Z,10.10
2019-04-16T13:06:32.085Z,10.87
2019-04-16T13:09:37.579Z,10.27
2019-04-16T13:12:22.746Z,11.83
2019-04-16T13:15:28.201Z,11.17
2019-04-16T13:18:25.416Z,9.93
2019-04-16T13:21:12.996Z,10.57
2019-04-16T13:23:55.542Z,10.20
2019-04-16T13:26:56.834Z,9.00
2019-04-16T13:29:47.387Z,12.77
2019-04-16T13:32:30.412Z,11.07
2019-04-16T13:35:14.405Z,11.87
2019-04-16T13:37:48.176Z,10.27
2019-04-16T13:40:30.463Z,10.50
2019-04-16T13:43:05.506Z,10.97
2019-04-16T13:45:40.803Z,8.17
2019-04-16T13:48:36.330Z,10.10
2019-04-16T13:51:18.497Z,10.93
2019-04-16T13:54:00.338Z,11.83
2019-04-16T13:56:37.869Z,10.00
2019-04-16T13:59:30.257Z,12.90
2019-04-16T14:02:06.347Z,10.70
2019-04-16T14:04:41.409Z,10.77
2019-04-16T14:07:14.617Z,10.33
2019-04-16T14:09:56.825Z,10.90
2019-04-16T14:12:41.865Z,12.10
2019-04-16T14:15:31.091Z,10.57
2019-04-16T14:18:04.785Z,10.63
2019-04-16T14:20:38.350Z,10.80
2019-04-16T14:23:21.579Z,11.57
2019-04-16T14:25:54.860Z,12.57
2019-04-16T14:28:28.568Z,10.90
2019-04-16T14:31:16.433Z,11.00
2019-04-16T14:34:01.786Z,11.67
2019-04-16T14:36:35.325Z,11.60
2019-04-16T14:39:20.166Z,12.37
2019-04-16T14:41:53.355Z,12.13
2019-04-16T14:44:40.973Z,13.30
2019-04-16T14:47:29.847Z,9.53
2019-04-16T14:50:13.288Z,12.97
2019-04-16T14:52:47.242Z,12.90
2019-04-16T14:55:33.285Z,12.83
2019-04-16T14:58:49.944Z,11.10
2019-04-16T15:01:45.995Z,9.77
2019-04-16T15:04:25.506Z,11.37
2019-04-16T15:07:24.971Z,10.73
2019-04-16T15:10:22.173Z,11.73
2019-04-16T15:13:02.692Z,11.87
2019-04-16T15:15:42.387Z,14.03
2019-04-16T15:18:26.936Z,12.50
2019-04-16T15:21:35.112Z,12.27
2019-04-16T15:24:40.834Z,11.30
2019-04-16T15:27:32.586Z,12.83
2019-04-16T15:30:34.530Z,11.50
2019-04-16T15:33:30.207Z,10.43
2019-04-16T15:36:19.552Z,12.13
2019-04-16T15:39:36.809Z,13.47
2019-04-16T15:42:27.895Z,12.10
2019-04-16T15:45:19.167Z,13.57
2019-04-16T15:48:23.811Z,13.60
2019-04-16T15:51:39.338Z,13.30
2019-04-16T15:55:05.192Z,13.47
2019-04-16T15:57:49.535Z,14.23
2019-04-16T16:00:57.117Z,14.17
2019-04-16T16:03:42.350Z,13.47
2019-04-16T16:06:20.656Z,12.67
2019-04-16T16:09:13.629Z,11.40
2019-04-16T16:12:01.398Z,12.93
2019-04-16T16:14:38.757Z,12.67
2019-04-16T16:17:11.441Z,14.07
2019-04-16T16:19:45.324Z,16.10
2019-04-16T16:22:18.926Z,14.30
2019-04-16T16:24:52.602Z,12.80
2019-04-16T16:27:26.200Z,14.33
2019-04-16T16:30:00.192Z,16.17
2019-04-16T16:32:45.388Z,14.70
2019-04-16T16:35:19.667Z,13.40
2019-04-16T16:37:53.325Z,14.07
2019-04-16T16:40:38.902Z,15.50
2019-04-16T16:43:26.186Z,14.33
2019-04-16T16:46:31.302Z,15.73
2019-04-16T16:49:05.056Z,13.77
2019-04-16T16:51:41.026Z,15.67
2019-04-16T16:54:37.501Z,17.43
2019-04-16T16:57:15.861Z,13.93
2019-04-16T16:59:57.521Z,14.07
2019-04-16T17:02:35.267Z,15.00
2019-04-16T17:05:33.083Z,12.67
2019-04-16T17:08:10.763Z,16.33
2019-04-16T17:10:44.992Z,14.47
2019-04-16T17:13:21.018Z,13.10
2019-04-16T17:15:54.828Z,14.10
2019-04-16T17:18:37.510Z,15.90
2019-04-16T17:21:20.627Z,13.73
2019-04-16T17:23:54.576Z,15.00
2019-04-16T17:26:28.237Z,16.37
2019-04-16T17:29:03.250Z,14.77
2019-04-16T17:31:36.641Z,14.13
2019-04-16T17:34:10.963Z,17.63
2019-04-16T17:36:44.639Z,16.10
2019-04-16T17:39:46.339Z,19.23
2019-04-16T17:42:20.912Z,16.87
2019-04-16T17:45:11.748Z,18.27
2019-04-16T17:48:06.725Z,15.23
2019-04-16T17:51:13.192Z,16.50
2019-04-16T17:53:53.582Z,16.50
2019-04-16T17:57:00.964Z,16.20
2019-04-16T17:59:43.710Z,17.17
2019-04-16T18:02:34.824Z,15.73
2019-04-16T18:05:14.979Z,14.90
2019-04-16T18:08:05.783Z,14.77
2019-04-16T18:11:02.407Z,17.23
2019-04-16T18:13:53.442Z,13.83
2019-04-16T18:16:49.992Z,16.93
2019-04-16T18:19:44.599Z,13.40
2019-04-16T18:22:45.004Z,16.70
2019-04-16T18:25:56.710Z,15.10
2019-04-16T18:28:33.519Z,17.77
2019-04-16T18:31:23.432Z,15.10
2019-04-16T18:34:33.514Z,15.07
2019-04-16T18:37:49.682Z,16.57
2019-04-16T18:40:30.989Z,14.57
2019-04-16T18:43:32.687Z,19.50
2019-04-16T18:46:22.771Z,14.07
2019-04-16T18:49:27.642Z,14.00
2019-04-16T18:52:00.989Z,13.90
2019-04-16T18:54:45.959Z,15.20
2019-04-16T18:57:19.694Z,18.10
2019-04-16T18:59:53.902Z,15.30
2019-04-16T19:02:28.965Z,16.80
2019-04-16T19:05:02.239Z,17.30
2019-04-16T19:07:36.007Z,16.30
2019-04-16T19:10:09.696Z,15.03
2019-04-16T19:12:43.338Z,17.00
2019-04-16T19:15:17.558Z,15.57
2019-04-16T19:17:59.815Z,19.50
2019-04-16T19:20:33.427Z,16.37
2019-04-16T19:23:06.685Z,18.57
2019-04-16T19:25:40.325Z,14.73
2019-04-16T19:28:13.758Z,14.73
2019-04-16T19:30:52.683Z,15.53
2019-04-16T19:33:33.379Z,15.93
2019-04-16T19:36:35.523Z,17.57
2019-04-16T19:39:18.245Z,15.23
2019-04-16T19:42:02.817Z,14.80
2019-04-16T19:44:46.779Z,18.03
2019-04-16T19:47:23.307Z,13.90
2019-04-16T19:49:57.435Z,13.87
2019-04-16T19:52:40.836Z,17.73
2019-04-16T19:55:23.047Z,16.20
2019-04-16T19:57:57.631Z,16.83
2019-04-16T20:00:31.635Z,17.57
2019-04-16T20:03:05.014Z,17.13
2019-04-16T20:05:38.850Z,19.47
2019-04-16T20:08:12.294Z,15.43
2019-04-16T20:10:48.581Z,17.90
2019-04-16T20:13:20.595Z,16.20
2019-04-16T20:16:09.600Z,15.53
2019-04-16T20:19:07.890Z,13.80
2019-04-16T20:21:47.678Z,17.40
2019-04-16T20:24:46.769Z,16.23
2019-04-16T20:27:21.336Z,13.13
2019-04-16T20:29:55.764Z,15.70
2019-04-16T20:32:31.059Z,15.27
2019-04-16T20:35:17.741Z,14.40
2019-04-16T20:37:58.937Z,15.50
2019-04-16T20:40:32.959Z,15.47
2019-04-16T20:43:09.103Z,14.70
2019-04-16T20:45:42.968Z,13.77
2019-04-16T20:48:17.328Z,15.10
2019-04-16T20:50:52.988Z,14.60
2019-04-16T20:53:25.702Z,14.67
2019-04-16T20:56:10.738Z,13.20
2019-04-16T20:58:52.615Z,15.10
2019-04-16T21:01:35.342Z,13.83
2019-04-16T21:04:13.520Z,16.17
2019-04-16T21:06:46.830Z,13.60
2019-04-16T21:09:20.673Z,13.13
2019-04-16T21:11:54.259Z,13.37
2019-04-16T21:14:30.914Z,12.47
2019-04-16T21:17:06.864Z,12.77
2019-04-16T21:19:48.417Z,12.77
2019-04-16T21:22:24.853Z,19.30
2019-04-16T21:24:57.576Z,14.87
2019-04-16T21:27:52.579Z,13.63
2019-04-16T21:30:26.153Z,13.80
2019-04-16T21:33:04.957Z,14.27
2019-04-16T21:35:40.049Z,14.60
2019-04-16T21:38:21.157Z,15.13
2019-04-16T21:40:56.427Z,14.23
2019-04-16T21:43:29.529Z,11.77
2019-04-16T21:46:01.460Z,14.93
2019-04-16T21:48:36.834Z,14.00
2019-04-16T21:51:10.334Z,11.50
2019-04-16T21:53:43.820Z,14.40
2019-04-16T21:56:17.653Z,13.47
2019-04-16T21:58:51.207Z,11.93
2019-04-16T22:01:41.808Z,13.50
2019-04-16T22:04:24.218Z,19.73
2019-04-16T22:06:57.497Z,13.70
2019-04-16T22:09:31.362Z,14.70
2019-04-16T22:12:07.251Z,14.33
2019-04-16T22:14:51.061Z,14.87
2019-04-16T22:17:26.190Z,13.27
2019-04-16T22:20:03.631Z,13.23
2019-04-16T22:22:34.718Z,15.50
2019-04-16T22:25:07.883Z,14.20
2019-04-16T22:27:50.375Z,12.23
2019-04-16T22:30:24.318Z,13.13
2019-04-16T22:33:07.480Z,14.87
2019-04-16T22:35:41.637Z,14.90
2019-04-16T22:38:16.836Z,11.43
2019-04-16T22:41:01.627Z,13.33
2019-04-16T22:44:21.359Z,12.47
2019-04-16T22:47:10.636Z,11.93
2019-04-16T22:50:15.660Z,17.10
2019-04-16T22:52:37.176Z,13.17
2019-04-16T22:55:10.695Z,14.17
2019-04-16T22:57:44.382Z,13.73
2019-04-16T23:00:44.175Z,14.93
2019-04-16T23:03:16.587Z,13.00
2019-04-16T23:05:51.513Z,11.87
2019-04-16T23:08:25.034Z,11.57
2019-04-16T23:10:58.629Z,12.30
2019-04-16T23:13:32.665Z,13.83
2019-04-16T23:16:16.935Z,12.03
2019-04-16T23:18:55.087Z,11.90
2019-04-16T23:21:28.901Z,14.73
2019-04-16T23:24:02.416Z,10.77
2019-04-16T23:26:36.262Z,12.73
2019-04-16T23:29:18.994Z,11.40
2019-04-16T23:31:56.039Z,11.37
2019-04-16T23:34:28.943Z,19.03
2019-04-16T23:37:03.078Z,13.00
2019-04-16T23:39:37.537Z,14.00
2019-04-16T23:42:11.498Z,12.87
2019-04-16T23:45:05.690Z,11.50
2019-04-16T23:47:57.903Z,11.23
2019-04-16T23:50:58.566Z,12.77
2019-04-16T23:53:57.225Z,14.43
2019-04-16T23:56:42.594Z,10.87
2019-04-16T23:59:25.632Z,12.27
